sensor_id;sensor_type;location;lat;lon;timestamp;temperature;humidity
65692;DHT22;52411;52.716;6.696;2023-05-19T00:01:14;7.90;99.90
65692;DHT22;52411;52.716;6.696;2023-05-19T00:03:50;7.90;99.90
65692;DHT22;52411;52.716;6.696;2023-05-19T00:06:19;7.90;99.90
65692;DHT22;52411;52.716;6.696;2023-05-19T00:08:45;7.80;99.90
65692;DHT22;52411;52.716;6.696;2023-05-19T00:11:11;7.80;99.90
65692;DHT22;52411;52.716;6.696;2023-05-19T00:13:37;7.80;99.90
65692;DHT22;52411;52.716;6.696;2023-05-19T00:16:02;7.80;99.90
65692;DHT22;52411;52.716;6.696;2023-05-19T00:18:28;7.70;99.90
65692;DHT22;52411;52.716;6.696;2023-05-19T00:20:54;7.80;99.90
65692;DHT22;52411;52.716;6.696;2023-05-19T00:23:20;7.70;99.90
65692;DHT22;52411;52.716;6.696;2023-05-19T00:25:46;7.80;99.90
65692;DHT22;52411;52.716;6.696;2023-05-19T00:28:11;7.70;99.90
65692;DHT22;52411;52.716;6.696;2023-05-19T00:30:36;7.80;99.90
65692;DHT22;52411;52.716;6.696;2023-05-19T00:33:02;7.70;99.90
65692;DHT22;52411;52.716;6.696;2023-05-19T00:35:27;7.70;99.90
65692;DHT22;52411;52.716;6.696;2023-05-19T00:37:53;7.70;99.90
65692;DHT22;52411;52.716;6.696;2023-05-19T00:40:19;7.70;99.90
65692;DHT22;52411;52.716;6.696;2023-05-19T00:42:44;7.60;99.90
65692;DHT22;52411;52.716;6.696;2023-05-19T00:45:10;7.60;99.90
65692;DHT22;52411;52.716;6.696;2023-05-19T00:47:35;7.60;99.90
65692;DHT22;52411;52.716;6.696;2023-05-19T00:50:01;7.60;99.90
65692;DHT22;52411;52.716;6.696;2023-05-19T00:52:26;7.60;99.90
65692;DHT22;52411;52.716;6.696;2023-05-19T00:54:52;7.50;99.90
65692;DHT22;52411;52.716;6.696;2023-05-19T00:57:19;7.50;99.90
65692;DHT22;52411;52.716;6.696;2023-05-19T00:59:48;7.50;99.90
65692;DHT22;52411;52.716;6.696;2023-05-19T01:02:14;7.40;99.90
65692;DHT22;52411;52.716;6.696;2023-05-19T01:04:39;7.40;99.90
65692;DHT22;52411;52.716;6.696;2023-05-19T01:07:06;7.40;99.90
65692;DHT22;52411;52.716;6.696;2023-05-19T01:09:31;7.50;99.90
65692;DHT22;52411;52.716;6.696;2023-05-19T01:11:57;7.50;99.90
65692;DHT22;52411;52.716;6.696;2023-05-19T01:14:23;7.50;99.90
65692;DHT22;52411;52.716;6.696;2023-05-19T01:25:05;7.50;99.90
65692;DHT22;52411;52.716;6.696;2023-05-19T01:32:48;7.50;99.90
65692;DHT22;52411;52.716;6.696;2023-05-19T01:35:14;7.50;99.90
65692;DHT22;52411;52.716;6.696;2023-05-19T01:37:39;7.50;99.90
65692;DHT22;52411;52.716;6.696;2023-05-19T01:40:06;7.50;99.90
65692;DHT22;52411;52.716;6.696;2023-05-19T01:42:32;7.40;99.90
65692;DHT22;52411;52.716;6.696;2023-05-19T01:45:02;7.40;99.90
65692;DHT22;52411;52.716;6.696;2023-05-19T01:47:27;7.40;99.90
65692;DHT22;52411;52.716;6.696;2023-05-19T01:49:53;7.40;99.90
65692;DHT22;52411;52.716;6.696;2023-05-19T01:52:18;7.30;99.90
65692;DHT22;52411;52.716;6.696;2023-05-19T01:54:44;7.30;99.90
65692;DHT22;52411;52.716;6.696;2023-05-19T02:00:13;7.20;99.90
65692;DHT22;52411;52.716;6.696;2023-05-19T02:02:54;7.20;99.90
65692;DHT22;52411;52.716;6.696;2023-05-19T02:10:59;7.10;99.90
65692;DHT22;52411;52.716;6.696;2023-05-19T02:13:28;7.10;99.90
65692;DHT22;52411;52.716;6.696;2023-05-19T02:15:54;7.10;99.90
65692;DHT22;52411;52.716;6.696;2023-05-19T02:18:21;7.00;99.90
65692;DHT22;52411;52.716;6.696;2023-05-19T02:20:47;7.00;99.90
65692;DHT22;52411;52.716;6.696;2023-05-19T02:23:12;7.00;99.90
65692;DHT22;52411;52.716;6.696;2023-05-19T02:25:38;6.90;99.90
65692;DHT22;52411;52.716;6.696;2023-05-19T02:28:03;6.90;99.90
65692;DHT22;52411;52.716;6.696;2023-05-19T02:30:29;6.90;99.90
65692;DHT22;52411;52.716;6.696;2023-05-19T02:32:55;7.00;99.90
65692;DHT22;52411;52.716;6.696;2023-05-19T02:35:21;7.10;99.90
65692;DHT22;52411;52.716;6.696;2023-05-19T02:37:46;7.10;99.90
65692;DHT22;52411;52.716;6.696;2023-05-19T02:40:12;7.00;99.90
65692;DHT22;52411;52.716;6.696;2023-05-19T02:42:37;7.00;99.90
65692;DHT22;52411;52.716;6.696;2023-05-19T02:45:03;6.90;99.90
65692;DHT22;52411;52.716;6.696;2023-05-19T02:47:29;6.80;99.90
65692;DHT22;52411;52.716;6.696;2023-05-19T02:49:54;6.80;99.90
65692;DHT22;52411;52.716;6.696;2023-05-19T02:52:20;6.70;99.90
65692;DHT22;52411;52.716;6.696;2023-05-19T02:54:45;6.70;99.90
65692;DHT22;52411;52.716;6.696;2023-05-19T02:57:11;6.70;99.90
65692;DHT22;52411;52.716;6.696;2023-05-19T02:59:36;6.80;99.90
65692;DHT22;52411;52.716;6.696;2023-05-19T03:02:02;6.80;99.90
65692;DHT22;52411;52.716;6.696;2023-05-19T03:04:28;6.90;99.90
65692;DHT22;52411;52.716;6.696;2023-05-19T03:06:54;6.90;99.90
65692;DHT22;52411;52.716;6.696;2023-05-19T03:09:19;6.90;99.90
65692;DHT22;52411;52.716;6.696;2023-05-19T03:11:45;6.80;99.90
65692;DHT22;52411;52.716;6.696;2023-05-19T03:14:10;6.70;99.90
65692;DHT22;52411;52.716;6.696;2023-05-19T03:16:39;6.60;99.90
65692;DHT22;52411;52.716;6.696;2023-05-19T03:19:08;6.50;99.90
65692;DHT22;52411;52.716;6.696;2023-05-19T03:21:33;6.40;99.90
65692;DHT22;52411;52.716;6.696;2023-05-19T03:23:59;6.30;99.90
65692;DHT22;52411;52.716;6.696;2023-05-19T03:26:25;6.30;99.90
65692;DHT22;52411;52.716;6.696;2023-05-19T03:28:51;6.30;99.90
65692;DHT22;52411;52.716;6.696;2023-05-19T03:31:16;6.30;99.90
65692;DHT22;52411;52.716;6.696;2023-05-19T03:33:42;6.20;99.90
65692;DHT22;52411;52.716;6.696;2023-05-19T03:36:07;6.20;99.90
65692;DHT22;52411;52.716;6.696;2023-05-19T03:38:33;6.20;99.90
65692;DHT22;52411;52.716;6.696;2023-05-19T03:40:58;6.10;99.90
65692;DHT22;52411;52.716;6.696;2023-05-19T03:43:24;6.10;99.90
65692;DHT22;52411;52.716;6.696;2023-05-19T03:45:49;6.10;99.90
65692;DHT22;52411;52.716;6.696;2023-05-19T03:48:15;6.10;99.90
65692;DHT22;52411;52.716;6.696;2023-05-19T03:50:40;6.10;99.90
65692;DHT22;52411;52.716;6.696;2023-05-19T03:53:06;6.20;99.90
65692;DHT22;52411;52.716;6.696;2023-05-19T03:55:32;6.20;99.90
65692;DHT22;52411;52.716;6.696;2023-05-19T03:57:58;6.20;99.90
65692;DHT22;52411;52.716;6.696;2023-05-19T04:00:23;6.20;99.90
65692;DHT22;52411;52.716;6.696;2023-05-19T04:02:48;6.20;99.90
65692;DHT22;52411;52.716;6.696;2023-05-19T04:05:14;6.20;99.90
65692;DHT22;52411;52.716;6.696;2023-05-19T04:07:40;6.20;99.90
65692;DHT22;52411;52.716;6.696;2023-05-19T04:10:06;6.20;99.90
65692;DHT22;52411;52.716;6.696;2023-05-19T04:12:31;6.30;99.90
65692;DHT22;52411;52.716;6.696;2023-05-19T04:14:57;6.30;99.90
65692;DHT22;52411;52.716;6.696;2023-05-19T04:17:23;6.30;99.90
65692;DHT22;52411;52.716;6.696;2023-05-19T04:19:53;6.40;99.90
65692;DHT22;52411;52.716;6.696;2023-05-19T04:22:19;6.40;99.90
65692;DHT22;52411;52.716;6.696;2023-05-19T04:24:44;6.50;99.90
65692;DHT22;52411;52.716;6.696;2023-05-19T04:27:10;6.50;99.90
65692;DHT22;52411;52.716;6.696;2023-05-19T04:29:36;6.60;99.90
65692;DHT22;52411;52.716;6.696;2023-05-19T04:32:03;6.60;99.90
65692;DHT22;52411;52.716;6.696;2023-05-19T04:34:32;6.70;99.90
65692;DHT22;52411;52.716;6.696;2023-05-19T04:36:58;6.70;99.90
65692;DHT22;52411;52.716;6.696;2023-05-19T04:39:23;6.80;99.90
65692;DHT22;52411;52.716;6.696;2023-05-19T04:41:49;6.80;99.90
65692;DHT22;52411;52.716;6.696;2023-05-19T04:44:14;6.90;99.90
65692;DHT22;52411;52.716;6.696;2023-05-19T04:46:42;7.00;99.90
65692;DHT22;52411;52.716;6.696;2023-05-19T04:49:09;7.10;99.90
65692;DHT22;52411;52.716;6.696;2023-05-19T04:51:37;7.20;99.90
65692;DHT22;52411;52.716;6.696;2023-05-19T04:54:08;7.30;99.90
65692;DHT22;52411;52.716;6.696;2023-05-19T04:56:34;7.40;99.90
65692;DHT22;52411;52.716;6.696;2023-05-19T04:59:00;7.50;99.90
65692;DHT22;52411;52.716;6.696;2023-05-19T05:01:25;7.70;99.90
65692;DHT22;52411;52.716;6.696;2023-05-19T05:03:51;7.70;99.90
65692;DHT22;52411;52.716;6.696;2023-05-19T05:06:20;7.80;99.90
65692;DHT22;52411;52.716;6.696;2023-05-19T05:08:47;7.90;99.90
65692;DHT22;52411;52.716;6.696;2023-05-19T05:11:12;8.10;99.90
65692;DHT22;52411;52.716;6.696;2023-05-19T05:13:38;8.10;99.90
65692;DHT22;52411;52.716;6.696;2023-05-19T05:16:03;8.20;99.90
65692;DHT22;52411;52.716;6.696;2023-05-19T05:18:31;8.30;99.90
65692;DHT22;52411;52.716;6.696;2023-05-19T05:20:57;8.40;99.90
65692;DHT22;52411;52.716;6.696;2023-05-19T05:23:22;8.40;99.90
65692;DHT22;52411;52.716;6.696;2023-05-19T05:25:48;8.50;99.90
65692;DHT22;52411;52.716;6.696;2023-05-19T05:28:14;8.60;99.90
65692;DHT22;52411;52.716;6.696;2023-05-19T05:30:39;8.70;99.90
65692;DHT22;52411;52.716;6.696;2023-05-19T05:33:05;8.80;99.90
65692;DHT22;52411;52.716;6.696;2023-05-19T05:35:31;8.90;99.90
65692;DHT22;52411;52.716;6.696;2023-05-19T05:37:56;8.80;99.90
65692;DHT22;52411;52.716;6.696;2023-05-19T05:40:22;9.00;99.90
65692;DHT22;52411;52.716;6.696;2023-05-19T05:42:47;9.00;99.90
65692;DHT22;52411;52.716;6.696;2023-05-19T05:45:13;9.20;99.90
65692;DHT22;52411;52.716;6.696;2023-05-19T05:47:38;9.20;99.90
65692;DHT22;52411;52.716;6.696;2023-05-19T05:50:06;9.40;99.90
65692;DHT22;52411;52.716;6.696;2023-05-19T05:52:32;9.50;99.90
65692;DHT22;52411;52.716;6.696;2023-05-19T05:55:00;9.60;99.90
65692;DHT22;52411;52.716;6.696;2023-05-19T05:57:25;9.70;99.90
65692;DHT22;52411;52.716;6.696;2023-05-19T05:59:51;9.80;99.90
65692;DHT22;52411;52.716;6.696;2023-05-19T06:02:16;9.90;99.90
65692;DHT22;52411;52.716;6.696;2023-05-19T06:04:42;10.10;99.90
65692;DHT22;52411;52.716;6.696;2023-05-19T06:07:08;10.20;99.90
65692;DHT22;52411;52.716;6.696;2023-05-19T06:09:34;10.40;99.90
65692;DHT22;52411;52.716;6.696;2023-05-19T06:11:59;10.40;99.90
65692;DHT22;52411;52.716;6.696;2023-05-19T06:14:25;10.50;99.90
65692;DHT22;52411;52.716;6.696;2023-05-19T06:16:50;10.60;99.90
65692;DHT22;52411;52.716;6.696;2023-05-19T06:19:16;10.70;99.90
65692;DHT22;52411;52.716;6.696;2023-05-19T06:21:42;10.70;99.90
65692;DHT22;52411;52.716;6.696;2023-05-19T06:24:07;10.80;99.90
65692;DHT22;52411;52.716;6.696;2023-05-19T06:26:33;10.90;99.90
65692;DHT22;52411;52.716;6.696;2023-05-19T06:28:58;10.90;99.90
65692;DHT22;52411;52.716;6.696;2023-05-19T06:31:24;11.00;99.90
65692;DHT22;52411;52.716;6.696;2023-05-19T06:33:50;11.00;99.90
65692;DHT22;52411;52.716;6.696;2023-05-19T06:36:16;11.10;99.90
65692;DHT22;52411;52.716;6.696;2023-05-19T06:38:41;11.20;99.90
65692;DHT22;52411;52.716;6.696;2023-05-19T06:41:07;11.20;99.90
65692;DHT22;52411;52.716;6.696;2023-05-19T06:43:32;11.30;99.90
65692;DHT22;52411;52.716;6.696;2023-05-19T06:45:58;11.40;99.90
65692;DHT22;52411;52.716;6.696;2023-05-19T06:48:23;11.50;99.90
65692;DHT22;52411;52.716;6.696;2023-05-19T06:50:49;11.50;99.90
65692;DHT22;52411;52.716;6.696;2023-05-19T06:53:15;11.60;99.90
65692;DHT22;52411;52.716;6.696;2023-05-19T06:55:41;11.70;99.90
65692;DHT22;52411;52.716;6.696;2023-05-19T06:58:06;11.70;99.90
65692;DHT22;52411;52.716;6.696;2023-05-19T07:00:32;11.80;99.90
65692;DHT22;52411;52.716;6.696;2023-05-19T07:02:58;11.90;99.90
65692;DHT22;52411;52.716;6.696;2023-05-19T07:05:23;12.10;99.90
65692;DHT22;52411;52.716;6.696;2023-05-19T07:07:48;12.10;99.90
65692;DHT22;52411;52.716;6.696;2023-05-19T07:10:14;12.20;99.90
65692;DHT22;52411;52.716;6.696;2023-05-19T07:12:39;12.30;99.90
65692;DHT22;52411;52.716;6.696;2023-05-19T07:15:05;12.40;99.90
65692;DHT22;52411;52.716;6.696;2023-05-19T07:17:31;12.50;99.90
65692;DHT22;52411;52.716;6.696;2023-05-19T07:19:56;12.60;99.90
65692;DHT22;52411;52.716;6.696;2023-05-19T07:22:22;12.70;99.90
65692;DHT22;52411;52.716;6.696;2023-05-19T07:24:48;12.80;99.90
65692;DHT22;52411;52.716;6.696;2023-05-19T07:27:14;12.90;99.90
65692;DHT22;52411;52.716;6.696;2023-05-19T07:29:39;13.00;99.90
65692;DHT22;52411;52.716;6.696;2023-05-19T07:32:05;13.00;99.90
65692;DHT22;52411;52.716;6.696;2023-05-19T07:34:31;13.10;99.90
65692;DHT22;52411;52.716;6.696;2023-05-19T07:36:56;13.10;99.90
65692;DHT22;52411;52.716;6.696;2023-05-19T07:39:21;13.20;99.90
65692;DHT22;52411;52.716;6.696;2023-05-19T07:41:49;13.30;99.90
65692;DHT22;52411;52.716;6.696;2023-05-19T07:44:18;13.40;99.90
65692;DHT22;52411;52.716;6.696;2023-05-19T07:46:43;13.50;99.90
65692;DHT22;52411;52.716;6.696;2023-05-19T07:49:09;13.50;99.90
65692;DHT22;52411;52.716;6.696;2023-05-19T07:51:34;13.60;99.90
65692;DHT22;52411;52.716;6.696;2023-05-19T07:54:00;13.70;99.90
65692;DHT22;52411;52.716;6.696;2023-05-19T07:56:26;13.90;99.90
65692;DHT22;52411;52.716;6.696;2023-05-19T07:58:52;14.00;99.90
65692;DHT22;52411;52.716;6.696;2023-05-19T08:01:17;14.00;99.90
65692;DHT22;52411;52.716;6.696;2023-05-19T08:03:42;14.10;99.90
65692;DHT22;52411;52.716;6.696;2023-05-19T08:06:08;14.10;99.90
65692;DHT22;52411;52.716;6.696;2023-05-19T08:08:33;14.20;99.90
65692;DHT22;52411;52.716;6.696;2023-05-19T08:11:02;14.30;99.90
65692;DHT22;52411;52.716;6.696;2023-05-19T08:13:29;14.40;99.90
65692;DHT22;52411;52.716;6.696;2023-05-19T08:15:54;14.50;98.60
65692;DHT22;52411;52.716;6.696;2023-05-19T08:18:24;14.50;98.70
65692;DHT22;52411;52.716;6.696;2023-05-19T08:20:49;14.60;99.70
65692;DHT22;52411;52.716;6.696;2023-05-19T08:23:15;14.70;98.90
65692;DHT22;52411;52.716;6.696;2023-05-19T08:25:42;14.80;98.20
65692;DHT22;52411;52.716;6.696;2023-05-19T08:28:07;14.90;97.70
65692;DHT22;52411;52.716;6.696;2023-05-19T08:30:33;15.00;96.90
65692;DHT22;52411;52.716;6.696;2023-05-19T08:32:58;15.00;97.60
65692;DHT22;52411;52.716;6.696;2023-05-19T08:35:24;15.20;99.20
65692;DHT22;52411;52.716;6.696;2023-05-19T08:37:50;15.20;97.80
65692;DHT22;52411;52.716;6.696;2023-05-19T08:40:16;15.20;96.40
65692;DHT22;52411;52.716;6.696;2023-05-19T08:42:42;15.30;96.20
65692;DHT22;52411;52.716;6.696;2023-05-19T08:45:08;15.30;96.30
65692;DHT22;52411;52.716;6.696;2023-05-19T08:47:33;15.40;96.80
65692;DHT22;52411;52.716;6.696;2023-05-19T08:50:02;15.50;97.60
65692;DHT22;52411;52.716;6.696;2023-05-19T08:54:59;15.70;95.50
65692;DHT22;52411;52.716;6.696;2023-05-19T08:57:25;15.70;94.90
65692;DHT22;52411;52.716;6.696;2023-05-19T08:59:51;15.80;97.50
65692;DHT22;52411;52.716;6.696;2023-05-19T09:02:17;15.80;97.00
65692;DHT22;52411;52.716;6.696;2023-05-19T09:04:43;15.90;94.70
65692;DHT22;52411;52.716;6.696;2023-05-19T09:07:12;16.10;96.40
65692;DHT22;52411;52.716;6.696;2023-05-19T09:09:38;16.10;93.90
65692;DHT22;52411;52.716;6.696;2023-05-19T09:12:08;16.20;94.90
65692;DHT22;52411;52.716;6.696;2023-05-19T09:14:34;16.30;94.90
65692;DHT22;52411;52.716;6.696;2023-05-19T09:17:00;16.30;97.00
65692;DHT22;52411;52.716;6.696;2023-05-19T09:19:29;16.40;94.70
65692;DHT22;52411;52.716;6.696;2023-05-19T09:21:58;16.50;94.50
65692;DHT22;52411;52.716;6.696;2023-05-19T09:24:30;16.70;93.60
65692;DHT22;52411;52.716;6.696;2023-05-19T09:26:56;16.70;95.60
65692;DHT22;52411;52.716;6.696;2023-05-19T09:29:21;16.70;93.90
65692;DHT22;52411;52.716;6.696;2023-05-19T09:31:51;16.70;94.70
65692;DHT22;52411;52.716;6.696;2023-05-19T09:34:17;16.90;94.00
65692;DHT22;52411;52.716;6.696;2023-05-19T09:36:42;16.90;93.80
65692;DHT22;52411;52.716;6.696;2023-05-19T09:39:11;16.90;93.80
65692;DHT22;52411;52.716;6.696;2023-05-19T09:41:37;17.10;94.40
65692;DHT22;52411;52.716;6.696;2023-05-19T09:44:03;17.10;91.60
65692;DHT22;52411;52.716;6.696;2023-05-19T09:46:29;17.10;93.10
65692;DHT22;52411;52.716;6.696;2023-05-19T09:48:58;17.00;92.50
65692;DHT22;52411;52.716;6.696;2023-05-19T09:51:23;17.10;93.90
65692;DHT22;52411;52.716;6.696;2023-05-19T09:53:49;17.10;93.00
65692;DHT22;52411;52.716;6.696;2023-05-19T09:56:16;17.30;93.60
65692;DHT22;52411;52.716;6.696;2023-05-19T09:58:41;17.40;94.00
65692;DHT22;52411;52.716;6.696;2023-05-19T10:01:07;17.40;94.00
65692;DHT22;52411;52.716;6.696;2023-05-19T10:03:33;17.50;92.10
65692;DHT22;52411;52.716;6.696;2023-05-19T10:05:59;17.50;93.40
65692;DHT22;52411;52.716;6.696;2023-05-19T10:08:25;17.50;94.40
65692;DHT22;52411;52.716;6.696;2023-05-19T10:10:54;17.70;94.60
65692;DHT22;52411;52.716;6.696;2023-05-19T10:13:20;17.90;92.90
65692;DHT22;52411;52.716;6.696;2023-05-19T10:15:45;17.80;92.40
65692;DHT22;52411;52.716;6.696;2023-05-19T10:18:11;17.70;91.20
65692;DHT22;52411;52.716;6.696;2023-05-19T10:20:38;17.60;92.10
65692;DHT22;52411;52.716;6.696;2023-05-19T10:23:04;17.60;92.90
65692;DHT22;52411;52.716;6.696;2023-05-19T10:25:30;17.60;93.10
65692;DHT22;52411;52.716;6.696;2023-05-19T10:27:58;17.70;92.40
65692;DHT22;52411;52.716;6.696;2023-05-19T10:30:27;18.10;93.70
65692;DHT22;52411;52.716;6.696;2023-05-19T10:32:53;18.40;94.00
65692;DHT22;52411;52.716;6.696;2023-05-19T10:40:26;18.50;87.80
65692;DHT22;52411;52.716;6.696;2023-05-19T10:45:50;18.50;90.70
65692;DHT22;52411;52.716;6.696;2023-05-19T10:48:17;18.40;86.50
65692;DHT22;52411;52.716;6.696;2023-05-19T10:50:44;18.50;87.70
65692;DHT22;52411;52.716;6.696;2023-05-19T10:53:13;18.60;88.10
65692;DHT22;52411;52.716;6.696;2023-05-19T10:55:52;18.60;88.50
65692;DHT22;52411;52.716;6.696;2023-05-19T11:01:06;18.80;87.40
65692;DHT22;52411;52.716;6.696;2023-05-19T11:03:41;19.10;87.70
65692;DHT22;52411;52.716;6.696;2023-05-19T11:06:24;19.00;89.40
65692;DHT22;52411;52.716;6.696;2023-05-19T11:11:22;18.90;86.40
65692;DHT22;52411;52.716;6.696;2023-05-19T11:13:51;19.00;88.20
65692;DHT22;52411;52.716;6.696;2023-05-19T11:16:18;19.10;87.30
65692;DHT22;52411;52.716;6.696;2023-05-19T11:18:48;19.10;86.60
65692;DHT22;52411;52.716;6.696;2023-05-19T11:21:14;19.30;84.80
65692;DHT22;52411;52.716;6.696;2023-05-19T11:23:40;19.20;81.40
65692;DHT22;52411;52.716;6.696;2023-05-19T11:26:06;19.40;85.40
65692;DHT22;52411;52.716;6.696;2023-05-19T11:28:32;19.60;85.10
65692;DHT22;52411;52.716;6.696;2023-05-19T11:30:58;19.50;81.70
65692;DHT22;52411;52.716;6.696;2023-05-19T11:33:25;19.60;86.60
65692;DHT22;52411;52.716;6.696;2023-05-19T11:35:52;19.60;81.00
65692;DHT22;52411;52.716;6.696;2023-05-19T11:38:17;19.70;83.10
65692;DHT22;52411;52.716;6.696;2023-05-19T11:40:43;19.80;79.90
65692;DHT22;52411;52.716;6.696;2023-05-19T11:43:09;19.70;78.40
65692;DHT22;52411;52.716;6.696;2023-05-19T11:45:34;19.80;79.10
65692;DHT22;52411;52.716;6.696;2023-05-19T11:48:00;19.90;77.50
65692;DHT22;52411;52.716;6.696;2023-05-19T11:50:27;19.90;76.60
65692;DHT22;52411;52.716;6.696;2023-05-19T11:52:53;20.00;81.00
65692;DHT22;52411;52.716;6.696;2023-05-19T11:55:19;20.20;80.60
65692;DHT22;52411;52.716;6.696;2023-05-19T11:58:05;20.30;79.60
65692;DHT22;52411;52.716;6.696;2023-05-19T12:00:34;20.20;77.70
65692;DHT22;52411;52.716;6.696;2023-05-19T12:03:03;20.40;79.10
65692;DHT22;52411;52.716;6.696;2023-05-19T12:05:29;20.50;78.80
65692;DHT22;52411;52.716;6.696;2023-05-19T12:07:55;20.50;72.90
65692;DHT22;52411;52.716;6.696;2023-05-19T12:10:30;20.70;72.70
65692;DHT22;52411;52.716;6.696;2023-05-19T12:12:58;21.00;79.10
65692;DHT22;52411;52.716;6.696;2023-05-19T12:15:23;21.30;77.70
65692;DHT22;52411;52.716;6.696;2023-05-19T12:18:01;21.20;76.20
65692;DHT22;52411;52.716;6.696;2023-05-19T12:20:28;20.80;72.10
65692;DHT22;52411;52.716;6.696;2023-05-19T12:22:56;20.70;72.20
65692;DHT22;52411;52.716;6.696;2023-05-19T12:25:22;20.80;72.30
65692;DHT22;52411;52.716;6.696;2023-05-19T12:27:48;20.70;73.30
65692;DHT22;52411;52.716;6.696;2023-05-19T12:30:15;20.80;74.30
65692;DHT22;52411;52.716;6.696;2023-05-19T12:32:41;21.10;76.90
65692;DHT22;52411;52.716;6.696;2023-05-19T12:35:07;21.60;76.50
65692;DHT22;52411;52.716;6.696;2023-05-19T12:37:32;21.80;73.20
65692;DHT22;52411;52.716;6.696;2023-05-19T12:39:59;21.70;73.60
65692;DHT22;52411;52.716;6.696;2023-05-19T12:42:25;21.60;69.40
65692;DHT22;52411;52.716;6.696;2023-05-19T12:44:55;21.50;69.70
65692;DHT22;52411;52.716;6.696;2023-05-19T12:47:21;21.10;68.90
65692;DHT22;52411;52.716;6.696;2023-05-19T12:52:25;20.90;70.50
65692;DHT22;52411;52.716;6.696;2023-05-19T12:54:58;21.20;73.20
65692;DHT22;52411;52.716;6.696;2023-05-19T12:57:25;21.60;72.90
65692;DHT22;52411;52.716;6.696;2023-05-19T12:59:50;21.50;69.30
65692;DHT22;52411;52.716;6.696;2023-05-19T13:02:16;21.10;70.00
65692;DHT22;52411;52.716;6.696;2023-05-19T13:04:42;21.20;70.00
65692;DHT22;52411;52.716;6.696;2023-05-19T13:07:08;21.40;71.20
65692;DHT22;52411;52.716;6.696;2023-05-19T13:09:33;21.20;68.70
65692;DHT22;52411;52.716;6.696;2023-05-19T13:12:00;21.70;72.20
65692;DHT22;52411;52.716;6.696;2023-05-19T13:14:26;21.70;65.10
65692;DHT22;52411;52.716;6.696;2023-05-19T13:16:51;21.90;69.50
65692;DHT22;52411;52.716;6.696;2023-05-19T13:19:18;22.20;68.10
65692;DHT22;52411;52.716;6.696;2023-05-19T13:21:44;22.30;66.40
65692;DHT22;52411;52.716;6.696;2023-05-19T13:24:11;21.90;64.10
65692;DHT22;52411;52.716;6.696;2023-05-19T13:26:37;21.90;64.70
65692;DHT22;52411;52.716;6.696;2023-05-19T13:29:03;22.50;70.00
65692;DHT22;52411;52.716;6.696;2023-05-19T13:31:29;23.00;68.40
65692;DHT22;52411;52.716;6.696;2023-05-19T13:33:55;22.10;65.30
65692;DHT22;52411;52.716;6.696;2023-05-19T13:36:20;21.80;66.60
65692;DHT22;52411;52.716;6.696;2023-05-19T13:38:46;21.30;65.00
65692;DHT22;52411;52.716;6.696;2023-05-19T13:41:11;21.10;66.60
65692;DHT22;52411;52.716;6.696;2023-05-19T13:43:37;21.00;68.00
65692;DHT22;52411;52.716;6.696;2023-05-19T13:46:02;20.80;64.60
65692;DHT22;52411;52.716;6.696;2023-05-19T13:48:28;20.90;65.90
65692;DHT22;52411;52.716;6.696;2023-05-19T13:50:53;21.70;71.80
65692;DHT22;52411;52.716;6.696;2023-05-19T13:53:20;21.90;66.30
65692;DHT22;52411;52.716;6.696;2023-05-19T13:55:45;21.50;66.70
65692;DHT22;52411;52.716;6.696;2023-05-19T13:58:12;21.10;65.90
65692;DHT22;52411;52.716;6.696;2023-05-19T14:00:39;21.10;62.80
65692;DHT22;52411;52.716;6.696;2023-05-19T14:03:05;21.40;63.20
65692;DHT22;52411;52.716;6.696;2023-05-19T14:05:31;22.10;66.40
65692;DHT22;52411;52.716;6.696;2023-05-19T14:07:56;23.00;66.20
65692;DHT22;52411;52.716;6.696;2023-05-19T14:10:24;23.70;64.60
65692;DHT22;52411;52.716;6.696;2023-05-19T14:12:49;23.70;57.60
65692;DHT22;52411;52.716;6.696;2023-05-19T14:15:15;23.20;56.70
65692;DHT22;52411;52.716;6.696;2023-05-19T14:17:40;22.90;56.70
65692;DHT22;52411;52.716;6.696;2023-05-19T14:20:08;23.30;63.90
65692;DHT22;52411;52.716;6.696;2023-05-19T14:22:34;23.80;59.10
65692;DHT22;52411;52.716;6.696;2023-05-19T14:25:00;23.60;60.10
65692;DHT22;52411;52.716;6.696;2023-05-19T14:27:25;23.00;60.50
65692;DHT22;52411;52.716;6.696;2023-05-19T14:29:51;22.20;56.10
65692;DHT22;52411;52.716;6.696;2023-05-19T14:32:16;21.80;59.40
65692;DHT22;52411;52.716;6.696;2023-05-19T14:34:42;22.00;59.80
65692;DHT22;52411;52.716;6.696;2023-05-19T14:37:07;22.20;59.80
65692;DHT22;52411;52.716;6.696;2023-05-19T14:39:33;22.60;60.60
65692;DHT22;52411;52.716;6.696;2023-05-19T14:41:58;23.20;59.70
65692;DHT22;52411;52.716;6.696;2023-05-19T14:44:28;23.80;60.50
65692;DHT22;52411;52.716;6.696;2023-05-19T14:46:54;24.10;55.90
65692;DHT22;52411;52.716;6.696;2023-05-19T14:49:19;23.50;57.10
65692;DHT22;52411;52.716;6.696;2023-05-19T14:51:45;22.50;56.50
65692;DHT22;52411;52.716;6.696;2023-05-19T14:54:10;21.60;56.50
65692;DHT22;52411;52.716;6.696;2023-05-19T14:56:36;20.90;58.80
65692;DHT22;52411;52.716;6.696;2023-05-19T14:59:01;21.10;59.40
65692;DHT22;52411;52.716;6.696;2023-05-19T15:01:28;22.10;63.70
65692;DHT22;52411;52.716;6.696;2023-05-19T15:03:54;23.20;59.30
65692;DHT22;52411;52.716;6.696;2023-05-19T15:06:19;24.10;57.00
65692;DHT22;52411;52.716;6.696;2023-05-19T15:08:45;24.60;56.70
65692;DHT22;52411;52.716;6.696;2023-05-19T15:11:11;25.30;54.60
65692;DHT22;52411;52.716;6.696;2023-05-19T15:13:37;24.80;53.80
65692;DHT22;52411;52.716;6.696;2023-05-19T15:16:02;25.10;54.50
65692;DHT22;52411;52.716;6.696;2023-05-19T15:18:28;25.00;52.60
65692;DHT22;52411;52.716;6.696;2023-05-19T15:20:53;24.30;52.60
65692;DHT22;52411;52.716;6.696;2023-05-19T15:23:19;23.00;50.80
65692;DHT22;52411;52.716;6.696;2023-05-19T15:25:44;22.50;54.40
65692;DHT22;52411;52.716;6.696;2023-05-19T15:28:10;23.10;57.50
65692;DHT22;52411;52.716;6.696;2023-05-19T15:30:36;23.90;53.20
65692;DHT22;52411;52.716;6.696;2023-05-19T15:33:02;24.20;51.60
65692;DHT22;52411;52.716;6.696;2023-05-19T15:35:28;24.40;50.10
65692;DHT22;52411;52.716;6.696;2023-05-19T15:37:53;24.10;52.60
65692;DHT22;52411;52.716;6.696;2023-05-19T15:40:18;23.20;52.90
65692;DHT22;52411;52.716;6.696;2023-05-19T15:42:44;22.90;56.40
65692;DHT22;52411;52.716;6.696;2023-05-19T15:45:09;23.30;56.50
65692;DHT22;52411;52.716;6.696;2023-05-19T15:47:35;23.90;53.20
65692;DHT22;52411;52.716;6.696;2023-05-19T15:50:01;24.30;50.80
65692;DHT22;52411;52.716;6.696;2023-05-19T15:52:26;24.80;51.40
65692;DHT22;52411;52.716;6.696;2023-05-19T15:54:52;25.10;50.40
65692;DHT22;52411;52.716;6.696;2023-05-19T15:57:19;25.80;51.30
65692;DHT22;52411;52.716;6.696;2023-05-19T15:59:44;26.40;51.20
65692;DHT22;52411;52.716;6.696;2023-05-19T16:02:10;27.00;53.00
65692;DHT22;52411;52.716;6.696;2023-05-19T16:04:35;27.50;49.50
65692;DHT22;52411;52.716;6.696;2023-05-19T16:07:01;27.10;47.30
65692;DHT22;52411;52.716;6.696;2023-05-19T16:09:27;25.40;48.00
65692;DHT22;52411;52.716;6.696;2023-05-19T16:11:52;23.90;49.30